createdAt,value
2023-03-24T00:01:48.168Z,70.98
2023-03-24T00:06:50.272Z,70.84
2023-03-24T00:11:52.099Z,71.00
2023-03-24T00:16:54.770Z,71.27
2023-03-24T00:22:00.651Z,71.87
2023-03-24T00:27:03.483Z,72.16
2023-03-24T00:32:05.168Z,72.95
2023-03-24T00:37:06.932Z,73.24
2023-03-24T00:42:09.137Z,74.00
2023-03-24T00:47:11.228Z,74.31
2023-03-24T00:52:15.879Z,74.82
2023-03-24T00:57:29.918Z,74.51
2023-03-24T01:02:31.928Z,74.94
2023-03-24T01:07:33.939Z,74.79
2023-03-24T01:12:39.464Z,75.14
2023-03-24T01:17:41.941Z,75.17
2023-03-24T01:22:46.186Z,75.43
2023-03-24T01:27:48.931Z,75.66
2023-03-24T01:32:52.239Z,75.32
2023-03-24T01:37:54.127Z,74.84
2023-03-24T01:42:56.248Z,74.60
2023-03-24T01:47:57.997Z,75.18
2023-03-24T01:53:00.138Z,75.45
2023-03-24T01:58:02.680Z,75.75
2023-03-24T02:03:19.282Z,76.10
2023-03-24T02:08:55.294Z,75.69
2023-03-24T02:13:58.330Z,76.86
2023-03-24T02:19:05.911Z,77.12
2023-03-24T02:24:22.944Z,76.80
2023-03-24T02:29:55.161Z,77.17
2023-03-24T02:35:13.991Z,77.29
2023-03-24T02:40:55.461Z,77.45
2023-03-24T02:46:00.101Z,77.50
2023-03-24T02:51:18.710Z,77.47
2023-03-24T02:56:30.181Z,77.60
2023-03-24T03:01:45.540Z,77.57
2023-03-24T03:07:23.034Z,77.53
2023-03-24T03:12:27.553Z,77.62
2023-03-24T03:17:36.003Z,77.39
2023-03-24T03:22:49.707Z,76.92
2023-03-24T03:27:53.456Z,76.88
2023-03-24T03:33:07.092Z,77.27
2023-03-24T03:38:23.508Z,77.41
2023-03-24T03:43:27.884Z,78.98
2023-03-24T03:48:30.223Z,79.67
2023-03-24T03:53:39.557Z,79.54
2023-03-24T03:58:42.456Z,79.87
2023-03-24T04:04:05.915Z,81.97
2023-03-24T04:10:07.571Z,83.08
2023-03-24T04:15:23.598Z,84.14
2023-03-24T04:20:53.440Z,84.46
2023-03-24T04:26:06.072Z,84.37
2023-03-24T04:31:17.858Z,85.04
2023-03-24T04:36:32.179Z,85.11
2023-03-24T04:42:04.323Z,84.59
2023-03-24T04:47:07.654Z,82.92
2023-03-24T04:52:10.070Z,82.14
2023-03-24T04:57:11.803Z,82.31
2023-03-24T05:02:21.658Z,82.74
2023-03-24T05:07:32.892Z,82.90
2023-03-24T05:12:38.039Z,82.47
2023-03-24T05:17:54.782Z,82.38
2023-03-24T05:22:59.448Z,83.34
2023-03-24T05:28:01.466Z,83.38
2023-03-24T05:33:03.556Z,83.71
2023-03-24T05:38:05.590Z,83.31
2023-03-24T05:43:08.282Z,82.74
2023-03-24T05:48:14.938Z,80.88
2023-03-24T05:53:52.622Z,80.46
2023-03-24T05:58:59.022Z,80.33
2023-03-24T06:04:20.778Z,79.28
2023-03-24T06:09:22.764Z,80.67
2023-03-24T06:14:24.456Z,80.04
2023-03-24T06:19:40.696Z,80.95
2023-03-24T06:24:53.854Z,81.33
2023-03-24T06:29:58.493Z,81.91
2023-03-24T06:35:00.339Z,82.00
2023-03-24T06:40:22.347Z,80.01
2023-03-24T06:45:31.083Z,79.53
2023-03-24T06:50:35.475Z,79.08
2023-03-24T06:55:43.208Z,78.66
2023-03-24T07:00:47.092Z,78.08
2023-03-24T07:06:15.325Z,76.13
2023-03-24T07:11:18.674Z,72.87
2023-03-24T07:16:29.159Z,72.50
2023-03-24T07:21:44.400Z,71.89
2023-03-24T07:26:46.901Z,71.34
2023-03-24T07:31:58.891Z,69.11
2023-03-24T07:37:02.238Z,68.67
2023-03-24T07:42:04.505Z,67.75
2023-03-24T07:47:17.608Z,66.83
2023-03-24T07:52:19.802Z,66.71
2023-03-24T07:57:25.902Z,65.71
2023-03-24T08:02:28.317Z,65.53
2023-03-24T08:07:55.925Z,64.60
2023-03-24T08:12:58.945Z,63.88
2023-03-24T08:18:00.692Z,63.59
2023-03-24T08:23:04.763Z,63.16
2023-03-24T08:28:07.465Z,63.63
2023-03-24T08:33:14.002Z,63.21
2023-03-24T08:38:18.826Z,62.78
2023-03-24T08:43:23.272Z,62.55
2023-03-24T08:48:25.922Z,62.62
2023-03-24T08:53:27.666Z,62.49
2023-03-24T08:58:29.395Z,63.01
2023-03-24T09:03:31.992Z,63.00
2023-03-24T09:08:33.636Z,62.80
2023-03-24T09:13:35.382Z,62.92
2023-03-24T09:18:37.755Z,62.41
2023-03-24T09:23:39.980Z,62.04
2023-03-24T09:28:41.697Z,61.39
2023-03-24T09:33:43.350Z,61.14
2023-03-24T09:38:48.102Z,60.50
2023-03-24T09:43:53.881Z,60.09
2023-03-24T09:48:57.624Z,61.00
2023-03-24T09:54:11.428Z,59.90
2023-03-24T09:59:32.422Z,59.35
2023-03-24T10:04:34.123Z,58.67
2023-03-24T10:09:36.576Z,57.78
2023-03-24T10:15:03.173Z,56.44
2023-03-24T10:20:16.259Z,56.87
2023-03-24T10:25:47.160Z,56.43
2023-03-24T10:30:51.569Z,56.01
2023-03-24T10:36:02.536Z,55.67
2023-03-24T10:41:04.617Z,56.21
2023-03-24T10:46:07.184Z,56.24
2023-03-24T10:51:26.689Z,56.17
2023-03-24T10:57:03.853Z,55.28
2023-03-24T11:02:26.539Z,54.08
2023-03-24T11:07:40.724Z,54.54
2023-03-24T11:12:54.548Z,55.60
2023-03-24T11:17:59.695Z,56.12
2023-03-24T11:23:09.647Z,56.90
2023-03-24T11:28:22.076Z,57.49
2023-03-24T11:33:35.809Z,56.91
2023-03-24T11:38:39.659Z,57.82
2023-03-24T11:43:41.490Z,56.81
2023-03-24T11:48:56.135Z,56.81
2023-03-24T11:53:58.652Z,57.40
2023-03-24T11:59:07.318Z,58.59
2023-03-24T12:04:33.701Z,57.27
2023-03-24T12:09:38.173Z,57.10
2023-03-24T12:14:56.464Z,56.45
2023-03-24T12:20:05.540Z,56.68
2023-03-24T12:25:13.009Z,56.32
2023-03-24T12:30:23.533Z,56.59
2023-03-24T12:35:29.870Z,56.55
2023-03-24T12:41:00.663Z,56.42
2023-03-24T12:46:29.529Z,57.98
2023-03-24T12:51:46.479Z,57.99
2023-03-24T12:56:59.264Z,58.19
2023-03-24T13:02:12.105Z,58.86
2023-03-24T13:07:18.347Z,59.19
2023-03-24T13:12:22.749Z,59.39
2023-03-24T13:17:30.428Z,59.96
2023-03-24T13:22:33.272Z,60.68
2023-03-24T13:27:37.898Z,61.63
2023-03-24T13:33:16.471Z,62.00
2023-03-24T13:38:37.354Z,61.10
2023-03-24T13:43:47.851Z,61.50
2023-03-24T13:48:55.909Z,61.25
2023-03-24T13:54:00.248Z,61.65
2023-03-24T13:59:01.796Z,66.73
2023-03-24T14:04:18.738Z,79.51
2023-03-24T14:09:22.832Z,82.95
2023-03-24T14:14:26.705Z,85.39
2023-03-24T14:19:40.526Z,85.84
2023-03-24T14:24:46.397Z,86.77
2023-03-24T14:29:52.341Z,89.18
2023-03-24T14:34:59.273Z,89.14
2023-03-24T14:40:01.287Z,88.65
2023-03-24T14:45:04.736Z,86.34
2023-03-24T14:50:18.855Z,85.72
2023-03-24T14:55:21.843Z,87.31
2023-03-24T15:00:38.761Z,86.06
2023-03-24T15:05:40.525Z,85.83
2023-03-24T15:10:46.914Z,83.40
2023-03-24T15:15:48.733Z,83.24
2023-03-24T15:20:51.168Z,84.66
2023-03-24T15:25:54.713Z,84.37
2023-03-24T15:31:01.581Z,84.13
2023-03-24T15:36:04.069Z,83.27
2023-03-24T15:41:09.796Z,83.04
2023-03-24T15:46:27.811Z,83.09
2023-03-24T15:51:57.347Z,81.05
2023-03-24T15:57:17.213Z,80.28
2023-03-24T16:02:33.863Z,77.39
2023-03-24T16:07:35.699Z,77.42
2023-03-24T16:12:37.945Z,78.00
2023-03-24T16:17:39.675Z,77.70
2023-03-24T16:22:41.867Z,77.74
2023-03-24T16:27:43.508Z,77.24
2023-03-24T16:32:46.528Z,77.68
2023-03-24T16:37:48.305Z,77.41
2023-03-24T16:42:49.941Z,77.57
2023-03-24T16:47:51.686Z,77.83
2023-03-24T16:52:53.504Z,77.25
2023-03-24T16:57:55.401Z,77.16
2023-03-24T17:02:59.763Z,77.64
2023-03-24T17:08:01.746Z,77.14
2023-03-24T17:13:03.478Z,76.83
2023-03-24T17:18:08.270Z,76.17
2023-03-24T17:23:12.050Z,76.48
2023-03-24T17:28:16.073Z,77.47
2023-03-24T17:33:18.095Z,77.78
2023-03-24T17:38:19.765Z,77.40
2023-03-24T17:43:21.409Z,76.47
2023-03-24T17:48:23.101Z,76.27
2023-03-24T17:53:28.179Z,76.54
2023-03-24T17:58:30.764Z,76.85
2023-03-24T18:03:33.506Z,77.07
2023-03-24T18:08:36.417Z,77.02
2023-03-24T18:13:38.490Z,76.42
2023-03-24T18:18:41.338Z,76.77
2023-03-24T18:23:43.128Z,76.88
2023-03-24T18:28:48.287Z,75.93
2023-03-24T18:33:51.177Z,76.28
2023-03-24T18:39:01.319Z,74.78
2023-03-24T18:44:05.684Z,74.34
2023-03-24T18:49:08.006Z,74.34
2023-03-24T18:54:10.876Z,73.59
2023-03-24T18:59:12.673Z,73.92
2023-03-24T19:04:17.952Z,74.01
2023-03-24T19:09:22.191Z,73.98
2023-03-24T19:14:26.561Z,74.64
2023-03-24T19:19:31.694Z,75.71
2023-03-24T19:24:33.480Z,75.74
2023-03-24T19:29:35.539Z,76.32
2023-03-24T19:34:37.174Z,76.48
2023-03-24T19:39:39.464Z,75.66
2023-03-24T19:44:41.188Z,75.78
2023-03-24T19:49:42.860Z,74.82
2023-03-24T19:54:44.553Z,74.78
2023-03-24T19:59:46.376Z,74.99
2023-03-24T20:04:48.109Z,73.69
2023-03-24T20:09:49.862Z,73.94
2023-03-24T20:14:51.501Z,74.38
2023-03-24T20:19:54.273Z,75.38
2023-03-24T20:24:56.350Z,75.73
2023-03-24T20:29:58.019Z,75.11
2023-03-24T20:34:59.981Z,75.72
2023-03-24T20:40:05.273Z,75.63
2023-03-24T20:45:07.934Z,75.17
2023-03-24T20:50:10.542Z,74.95
2023-03-24T20:55:12.508Z,75.21
2023-03-24T21:00:14.793Z,74.95
2023-03-24T21:05:16.459Z,74.38
2023-03-24T21:10:18.172Z,74.72
2023-03-24T21:15:19.837Z,74.37
2023-03-24T21:20:22.641Z,74.48
2023-03-24T21:25:26.953Z,74.53
2023-03-24T21:30:29.265Z,74.35
2023-03-24T21:35:31.606Z,74.27
2023-03-24T21:40:33.594Z,74.37
2023-03-24T21:45:38.729Z,74.66
2023-03-24T21:50:45.584Z,74.22
2023-03-24T21:55:52.454Z,74.26
2023-03-24T22:00:55.022Z,74.47
2023-03-24T22:05:57.259Z,74.46
2023-03-24T22:11:00.940Z,73.69
2023-03-24T22:16:04.078Z,73.36
2023-03-24T22:21:07.642Z,72.73
2023-03-24T22:26:18.144Z,72.28
2023-03-24T22:31:23.088Z,71.88
2023-03-24T22:36:25.247Z,71.64
2023-03-24T22:41:27.120Z,71.10
2023-03-24T22:46:28.856Z,71.08
2023-03-24T22:51:31.506Z,70.48
2023-03-24T22:56:33.474Z,70.00
2023-03-24T23:01:35.484Z,70.13
2023-03-24T23:06:38.181Z,69.82
2023-03-24T23:11:40.141Z,69.41
2023-03-24T23:16:43.308Z,69.37
2023-03-24T23:21:45.013Z,69.64
2023-03-24T23:26:47.298Z,69.56
2023-03-24T23:31:48.955Z,69.18
2023-03-24T23:36:50.871Z,69.06
2023-03-24T23:41:52.543Z,69.33
2023-03-24T23:46:54.233Z,69.28
2023-03-24T23:51:56.087Z,69.59
2023-03-24T23:56:57.755Z,69.92
